sensor_id;sensor_type;location;lat;lon;timestamp;temperature;humidity
68276;DHT22;55106;51.438;-0.098;2022-10-16T00:00:52;11.17;93.93
68276;DHT22;55106;51.438;-0.098;2022-10-16T00:03:18;11.19;94.03
68276;DHT22;55106;51.438;-0.098;2022-10-16T00:05:44;11.17;94.04
68276;DHT22;55106;51.438;-0.098;2022-10-16T00:08:11;11.06;94.18
68276;DHT22;55106;51.438;-0.098;2022-10-16T00:10:36;11.00;94.48
68276;DHT22;55106;51.438;-0.098;2022-10-16T00:13:03;11.00;94.88
68276;DHT22;55106;51.438;-0.098;2022-10-16T00:15:28;11.09;94.74
68276;DHT22;55106;51.438;-0.098;2022-10-16T00:17:54;11.02;94.71
68276;DHT22;55106;51.438;-0.098;2022-10-16T00:20:19;10.95;94.86
68276;DHT22;55106;51.438;-0.098;2022-10-16T00:22:45;10.99;94.68
68276;DHT22;55106;51.438;-0.098;2022-10-16T00:25:10;10.93;94.79
68276;DHT22;55106;51.438;-0.098;2022-10-16T00:27:35;10.86;95.00
68276;DHT22;55106;51.438;-0.098;2022-10-16T00:30:01;10.82;94.93
68276;DHT22;55106;51.438;-0.098;2022-10-16T00:32:26;10.73;95.00
68276;DHT22;55106;51.438;-0.098;2022-10-16T00:34:52;10.77;95.06
68276;DHT22;55106;51.438;-0.098;2022-10-16T00:37:20;10.72;95.17
68276;DHT22;55106;51.438;-0.098;2022-10-16T00:39:45;10.58;95.37
68276;DHT22;55106;51.438;-0.098;2022-10-16T00:42:19;10.64;95.49
68276;DHT22;55106;51.438;-0.098;2022-10-16T00:44:56;10.59;95.56
68276;DHT22;55106;51.438;-0.098;2022-10-16T00:47:35;10.65;95.33
68276;DHT22;55106;51.438;-0.098;2022-10-16T00:50:13;10.61;95.23
68276;DHT22;55106;51.438;-0.098;2022-10-16T00:52:44;10.58;95.65
68276;DHT22;55106;51.438;-0.098;2022-10-16T00:55:10;10.58;95.43
68276;DHT22;55106;51.438;-0.098;2022-10-16T00:57:36;10.56;95.50
68276;DHT22;55106;51.438;-0.098;2022-10-16T01:00:04;10.65;94.93
68276;DHT22;55106;51.438;-0.098;2022-10-16T01:02:30;10.59;95.21
68276;DHT22;55106;51.438;-0.098;2022-10-16T01:04:56;10.64;95.06
68276;DHT22;55106;51.438;-0.098;2022-10-16T01:10:26;10.72;94.64
68276;DHT22;55106;51.438;-0.098;2022-10-16T01:14:04;10.77;94.80
68276;DHT22;55106;51.438;-0.098;2022-10-16T01:16:06;10.71;95.08
68276;DHT22;55106;51.438;-0.098;2022-10-16T01:21:13;10.76;94.84
68276;DHT22;55106;51.438;-0.098;2022-10-16T01:24:03;10.69;95.26
68276;DHT22;55106;51.438;-0.098;2022-10-16T01:26:42;10.64;95.24
68276;DHT22;55106;51.438;-0.098;2022-10-16T01:31:49;10.69;95.48
68276;DHT22;55106;51.438;-0.098;2022-10-16T01:34:31;10.73;95.17
68276;DHT22;55106;51.438;-0.098;2022-10-16T01:37:02;10.91;95.27
68276;DHT22;55106;51.438;-0.098;2022-10-16T01:39:32;10.83;95.24
68276;DHT22;55106;51.438;-0.098;2022-10-16T01:42:06;10.82;95.26
68276;DHT22;55106;51.438;-0.098;2022-10-16T01:44:33;10.91;95.45
68276;DHT22;55106;51.438;-0.098;2022-10-16T01:47:02;11.02;95.40
68276;DHT22;55106;51.438;-0.098;2022-10-16T01:49:32;11.13;95.19
68276;DHT22;55106;51.438;-0.098;2022-10-16T01:52:00;11.19;94.97
68276;DHT22;55106;51.438;-0.098;2022-10-16T01:54:28;11.34;94.65
68276;DHT22;55106;51.438;-0.098;2022-10-16T01:56:56;11.43;94.86
68276;DHT22;55106;51.438;-0.098;2022-10-16T01:59:25;11.48;95.04
68276;DHT22;55106;51.438;-0.098;2022-10-16T02:02:00;11.57;95.02
68276;DHT22;55106;51.438;-0.098;2022-10-16T02:04:35;11.62;94.77
68276;DHT22;55106;51.438;-0.098;2022-10-16T02:07:01;11.68;93.85
68276;DHT22;55106;51.438;-0.098;2022-10-16T02:09:27;11.74;93.19
68276;DHT22;55106;51.438;-0.098;2022-10-16T02:11:53;11.77;92.72
68276;DHT22;55106;51.438;-0.098;2022-10-16T02:14:20;11.74;92.63
68276;DHT22;55106;51.438;-0.098;2022-10-16T02:16:47;11.70;92.70
68276;DHT22;55106;51.438;-0.098;2022-10-16T02:19:13;11.61;92.98
68276;DHT22;55106;51.438;-0.098;2022-10-16T02:21:43;11.48;93.55
68276;DHT22;55106;51.438;-0.098;2022-10-16T02:27:18;11.33;94.52
68276;DHT22;55106;51.438;-0.098;2022-10-16T02:29:53;11.24;94.76
68276;DHT22;55106;51.438;-0.098;2022-10-16T02:32:24;11.07;95.08
68276;DHT22;55106;51.438;-0.098;2022-10-16T02:34:53;10.95;95.31
68276;DHT22;55106;51.438;-0.098;2022-10-16T02:37:19;10.86;95.72
68276;DHT22;55106;51.438;-0.098;2022-10-16T02:39:45;10.79;95.91
68276;DHT22;55106;51.438;-0.098;2022-10-16T02:42:14;10.71;96.09
68276;DHT22;55106;51.438;-0.098;2022-10-16T02:44:40;10.65;96.07
68276;DHT22;55106;51.438;-0.098;2022-10-16T02:47:06;10.71;95.92
68276;DHT22;55106;51.438;-0.098;2022-10-16T02:49:31;10.64;95.98
68276;DHT22;55106;51.438;-0.098;2022-10-16T02:51:56;10.58;95.81
68276;DHT22;55106;51.438;-0.098;2022-10-16T02:54:22;10.61;95.54
68276;DHT22;55106;51.438;-0.098;2022-10-16T02:56:47;10.54;95.48
68276;DHT22;55106;51.438;-0.098;2022-10-16T02:59:13;10.62;94.98
68276;DHT22;55106;51.438;-0.098;2022-10-16T03:01:38;10.68;94.32
68276;DHT22;55106;51.438;-0.098;2022-10-16T03:04:03;10.83;93.21
68276;DHT22;55106;51.438;-0.098;2022-10-16T03:06:29;10.73;93.08
68276;DHT22;55106;51.438;-0.098;2022-10-16T03:08:54;10.64;93.08
68276;DHT22;55106;51.438;-0.098;2022-10-16T03:11:20;10.58;93.64
68276;DHT22;55106;51.438;-0.098;2022-10-16T03:13:45;10.44;93.53
68276;DHT22;55106;51.438;-0.098;2022-10-16T03:16:11;10.49;93.56
68276;DHT22;55106;51.438;-0.098;2022-10-16T03:18:36;10.48;93.37
68276;DHT22;55106;51.438;-0.098;2022-10-16T03:21:02;10.40;93.45
68276;DHT22;55106;51.438;-0.098;2022-10-16T03:23:27;10.42;93.23
68276;DHT22;55106;51.438;-0.098;2022-10-16T03:25:53;10.37;93.45
68276;DHT22;55106;51.438;-0.098;2022-10-16T03:28:19;10.33;93.35
68276;DHT22;55106;51.438;-0.098;2022-10-16T03:30:44;10.25;93.58
68276;DHT22;55106;51.438;-0.098;2022-10-16T03:33:09;10.20;93.82
68276;DHT22;55106;51.438;-0.098;2022-10-16T03:35:35;10.13;94.04
68276;DHT22;55106;51.438;-0.098;2022-10-16T03:38:00;10.10;94.10
68276;DHT22;55106;51.438;-0.098;2022-10-16T03:40:26;10.01;94.12
68276;DHT22;55106;51.438;-0.098;2022-10-16T03:42:52;9.96;94.54
68276;DHT22;55106;51.438;-0.098;2022-10-16T03:45:19;9.93;94.61
68276;DHT22;55106;51.438;-0.098;2022-10-16T03:47:44;9.94;94.50
68276;DHT22;55106;51.438;-0.098;2022-10-16T03:50:10;9.91;94.68
68276;DHT22;55106;51.438;-0.098;2022-10-16T03:52:35;9.97;94.42
68276;DHT22;55106;51.438;-0.098;2022-10-16T03:55:01;9.91;94.61
68276;DHT22;55106;51.438;-0.098;2022-10-16T03:57:26;9.91;94.80
68276;DHT22;55106;51.438;-0.098;2022-10-16T03:59:51;9.91;94.97
68276;DHT22;55106;51.438;-0.098;2022-10-16T04:02:17;10.04;94.52
68276;DHT22;55106;51.438;-0.098;2022-10-16T04:04:42;10.04;94.53
68276;DHT22;55106;51.438;-0.098;2022-10-16T04:07:07;10.10;94.35
68276;DHT22;55106;51.438;-0.098;2022-10-16T04:09:33;10.07;94.50
68276;DHT22;55106;51.438;-0.098;2022-10-16T04:11:58;10.13;94.63
68276;DHT22;55106;51.438;-0.098;2022-10-16T04:14:23;10.01;94.65
68276;DHT22;55106;51.438;-0.098;2022-10-16T04:16:49;9.96;94.98
68276;DHT22;55106;51.438;-0.098;2022-10-16T04:19:14;9.93;95.21
68276;DHT22;55106;51.438;-0.098;2022-10-16T04:21:39;9.96;95.45
68276;DHT22;55106;51.438;-0.098;2022-10-16T04:24:05;10.06;95.25
68276;DHT22;55106;51.438;-0.098;2022-10-16T04:26:31;10.03;95.17
68276;DHT22;55106;51.438;-0.098;2022-10-16T04:28:56;10.07;95.32
68276;DHT22;55106;51.438;-0.098;2022-10-16T04:31:21;10.08;95.30
68276;DHT22;55106;51.438;-0.098;2022-10-16T04:33:47;10.04;95.44
68276;DHT22;55106;51.438;-0.098;2022-10-16T04:36:12;10.10;95.21
68276;DHT22;55106;51.438;-0.098;2022-10-16T04:38:38;10.01;95.38
68276;DHT22;55106;51.438;-0.098;2022-10-16T04:41:05;10.13;95.32
68276;DHT22;55106;51.438;-0.098;2022-10-16T04:43:31;10.08;95.28
68276;DHT22;55106;51.438;-0.098;2022-10-16T04:45:56;10.04;95.55
68276;DHT22;55106;51.438;-0.098;2022-10-16T04:48:22;10.10;95.33
68276;DHT22;55106;51.438;-0.098;2022-10-16T04:50:47;10.08;95.17
68276;DHT22;55106;51.438;-0.098;2022-10-16T04:53:13;10.11;94.98
68276;DHT22;55106;51.438;-0.098;2022-10-16T04:55:38;10.03;94.83
68276;DHT22;55106;51.438;-0.098;2022-10-16T04:58:04;9.94;95.11
68276;DHT22;55106;51.438;-0.098;2022-10-16T05:00:29;9.93;95.22
68276;DHT22;55106;51.438;-0.098;2022-10-16T05:02:55;9.83;95.46
68276;DHT22;55106;51.438;-0.098;2022-10-16T05:05:20;9.73;95.74
68276;DHT22;55106;51.438;-0.098;2022-10-16T05:07:46;9.83;95.51
68276;DHT22;55106;51.438;-0.098;2022-10-16T05:10:12;9.82;95.47
68276;DHT22;55106;51.438;-0.098;2022-10-16T05:12:37;9.89;94.84
68276;DHT22;55106;51.438;-0.098;2022-10-16T05:15:03;9.90;94.56
68276;DHT22;55106;51.438;-0.098;2022-10-16T05:17:29;9.93;94.51
68276;DHT22;55106;51.438;-0.098;2022-10-16T05:19:54;9.86;94.29
68276;DHT22;55106;51.438;-0.098;2022-10-16T05:22:20;9.89;94.10
68276;DHT22;55106;51.438;-0.098;2022-10-16T05:24:45;9.89;94.24
68276;DHT22;55106;51.438;-0.098;2022-10-16T05:27:11;9.82;94.17
68276;DHT22;55106;51.438;-0.098;2022-10-16T05:29:46;9.73;94.33
68276;DHT22;55106;51.438;-0.098;2022-10-16T05:32:13;9.80;94.22
68276;DHT22;55106;51.438;-0.098;2022-10-16T05:34:39;9.93;93.64
68276;DHT22;55106;51.438;-0.098;2022-10-16T05:37:05;9.90;93.69
68276;DHT22;55106;51.438;-0.098;2022-10-16T05:39:30;9.87;93.93
68276;DHT22;55106;51.438;-0.098;2022-10-16T05:41:55;9.79;94.29
68276;DHT22;55106;51.438;-0.098;2022-10-16T05:44:21;9.82;93.71
68276;DHT22;55106;51.438;-0.098;2022-10-16T05:46:47;9.65;94.21
68276;DHT22;55106;51.438;-0.098;2022-10-16T05:49:12;9.72;94.44
68276;DHT22;55106;51.438;-0.098;2022-10-16T05:51:38;9.85;93.78
68276;DHT22;55106;51.438;-0.098;2022-10-16T05:54:03;9.76;94.28
68276;DHT22;55106;51.438;-0.098;2022-10-16T05:56:28;9.72;94.16
68276;DHT22;55106;51.438;-0.098;2022-10-16T05:58:54;9.63;94.43
68276;DHT22;55106;51.438;-0.098;2022-10-16T06:01:19;9.55;94.81
68276;DHT22;55106;51.438;-0.098;2022-10-16T06:03:50;9.35;95.10
68276;DHT22;55106;51.438;-0.098;2022-10-16T06:06:21;9.30;95.48
68276;DHT22;55106;51.438;-0.098;2022-10-16T06:08:48;9.21;95.96
68276;DHT22;55106;51.438;-0.098;2022-10-16T06:11:20;9.18;95.90
68276;DHT22;55106;51.438;-0.098;2022-10-16T06:13:52;9.24;96.03
68276;DHT22;55106;51.438;-0.098;2022-10-16T06:16:18;9.11;96.24
68276;DHT22;55106;51.438;-0.098;2022-10-16T06:18:44;9.08;96.14
68276;DHT22;55106;51.438;-0.098;2022-10-16T06:21:11;8.99;96.20
68276;DHT22;55106;51.438;-0.098;2022-10-16T06:23:37;9.00;96.62
68276;DHT22;55106;51.438;-0.098;2022-10-16T06:26:10;8.96;96.47
68276;DHT22;55106;51.438;-0.098;2022-10-16T06:28:36;8.84;96.85
68276;DHT22;55106;51.438;-0.098;2022-10-16T06:31:03;8.74;96.97
68276;DHT22;55106;51.438;-0.098;2022-10-16T06:33:29;8.73;97.18
68276;DHT22;55106;51.438;-0.098;2022-10-16T06:36:01;8.73;97.23
68276;DHT22;55106;51.438;-0.098;2022-10-16T06:38:28;8.84;97.17
68276;DHT22;55106;51.438;-0.098;2022-10-16T06:40:53;8.84;97.17
68276;DHT22;55106;51.438;-0.098;2022-10-16T06:43:19;9.00;96.58
68276;DHT22;55106;51.438;-0.098;2022-10-16T06:45:53;8.99;96.59
68276;DHT22;55106;51.438;-0.098;2022-10-16T06:48:19;8.97;96.36
68276;DHT22;55106;51.438;-0.098;2022-10-16T06:50:58;8.97;96.52
68276;DHT22;55106;51.438;-0.098;2022-10-16T06:53:24;8.99;96.74
68276;DHT22;55106;51.438;-0.098;2022-10-16T06:55:50;8.97;96.68
68276;DHT22;55106;51.438;-0.098;2022-10-16T06:58:15;9.07;96.58
68276;DHT22;55106;51.438;-0.098;2022-10-16T07:00:41;9.07;96.40
68276;DHT22;55106;51.438;-0.098;2022-10-16T07:03:06;9.12;96.27
68276;DHT22;55106;51.438;-0.098;2022-10-16T07:05:31;9.21;96.36
68276;DHT22;55106;51.438;-0.098;2022-10-16T07:07:57;9.24;96.20
68276;DHT22;55106;51.438;-0.098;2022-10-16T07:10:22;9.34;96.10
68276;DHT22;55106;51.438;-0.098;2022-10-16T07:12:49;9.51;95.56
68276;DHT22;55106;51.438;-0.098;2022-10-16T07:15:14;9.70;95.02
68276;DHT22;55106;51.438;-0.098;2022-10-16T07:17:40;9.85;94.40
68276;DHT22;55106;51.438;-0.098;2022-10-16T07:20:06;9.96;94.13
68276;DHT22;55106;51.438;-0.098;2022-10-16T07:22:31;10.24;93.46
68276;DHT22;55106;51.438;-0.098;2022-10-16T07:24:57;10.47;92.43
68276;DHT22;55106;51.438;-0.098;2022-10-16T07:27:23;10.55;92.07
68276;DHT22;55106;51.438;-0.098;2022-10-16T07:29:49;10.66;91.65
68276;DHT22;55106;51.438;-0.098;2022-10-16T07:32:14;10.80;91.32
68276;DHT22;55106;51.438;-0.098;2022-10-16T07:34:40;10.99;90.69
68276;DHT22;55106;51.438;-0.098;2022-10-16T07:37:05;11.20;89.95
68276;DHT22;55106;51.438;-0.098;2022-10-16T07:39:30;11.31;89.09
68276;DHT22;55106;51.438;-0.098;2022-10-16T07:41:56;11.34;89.17
68276;DHT22;55106;51.438;-0.098;2022-10-16T07:44:21;11.44;88.88
68276;DHT22;55106;51.438;-0.098;2022-10-16T07:46:46;11.58;88.11
68276;DHT22;55106;51.438;-0.098;2022-10-16T07:49:12;11.74;87.20
68276;DHT22;55106;51.438;-0.098;2022-10-16T07:51:37;12.03;86.87
68276;DHT22;55106;51.438;-0.098;2022-10-16T07:54:04;12.08;86.89
68276;DHT22;55106;51.438;-0.098;2022-10-16T07:56:31;12.26;85.57
68276;DHT22;55106;51.438;-0.098;2022-10-16T07:58:57;12.33;85.70
68276;DHT22;55106;51.438;-0.098;2022-10-16T08:01:23;12.41;85.38
68276;DHT22;55106;51.438;-0.098;2022-10-16T08:03:49;12.57;85.22
68276;DHT22;55106;51.438;-0.098;2022-10-16T08:06:16;12.43;85.27
68276;DHT22;55106;51.438;-0.098;2022-10-16T08:08:42;12.36;85.67
68276;DHT22;55106;51.438;-0.098;2022-10-16T08:11:07;12.68;84.44
68276;DHT22;55106;51.438;-0.098;2022-10-16T08:13:33;13.06;83.38
68276;DHT22;55106;51.438;-0.098;2022-10-16T08:15:58;13.25;82.51
68276;DHT22;55106;51.438;-0.098;2022-10-16T08:18:24;13.09;83.70
68276;DHT22;55106;51.438;-0.098;2022-10-16T08:20:56;12.92;83.92
68276;DHT22;55106;51.438;-0.098;2022-10-16T08:23:22;12.85;84.07
68276;DHT22;55106;51.438;-0.098;2022-10-16T08:25:47;12.96;83.58
68276;DHT22;55106;51.438;-0.098;2022-10-16T08:28:13;13.15;83.78
68276;DHT22;55106;51.438;-0.098;2022-10-16T08:30:38;13.40;82.09
68276;DHT22;55106;51.438;-0.098;2022-10-16T08:33:04;13.46;82.28
68276;DHT22;55106;51.438;-0.098;2022-10-16T08:35:29;13.94;81.05
68276;DHT22;55106;51.438;-0.098;2022-10-16T08:37:55;14.11;79.83
68276;DHT22;55106;51.438;-0.098;2022-10-16T08:40:29;14.19;80.12
68276;DHT22;55106;51.438;-0.098;2022-10-16T08:51:01;15.56;74.15
68276;DHT22;55106;51.438;-0.098;2022-10-16T08:53:38;15.94;73.05
68276;DHT22;55106;51.438;-0.098;2022-10-16T08:56:07;17.27;70.06
68276;DHT22;55106;51.438;-0.098;2022-10-16T08:58:32;18.19;65.95
68276;DHT22;55106;51.438;-0.098;2022-10-16T09:01:00;18.83;64.55
68276;DHT22;55106;51.438;-0.098;2022-10-16T09:03:57;18.78;64.55
68276;DHT22;55106;51.438;-0.098;2022-10-16T09:06:39;19.09;62.30
68276;DHT22;55106;51.438;-0.098;2022-10-16T09:12:20;18.81;63.48
68276;DHT22;55106;51.438;-0.098;2022-10-16T09:17:48;18.14;65.11
68276;DHT22;55106;51.438;-0.098;2022-10-16T09:20:26;17.61;66.98
68276;DHT22;55106;51.438;-0.098;2022-10-16T09:23:18;17.60;67.14
68276;DHT22;55106;51.438;-0.098;2022-10-16T09:25:47;17.61;66.45
68276;DHT22;55106;51.438;-0.098;2022-10-16T09:28:17;17.44;67.55
68276;DHT22;55106;51.438;-0.098;2022-10-16T09:30:43;17.95;65.63
68276;DHT22;55106;51.438;-0.098;2022-10-16T09:33:10;18.71;63.77
68276;DHT22;55106;51.438;-0.098;2022-10-16T09:35:44;18.99;62.36
68276;DHT22;55106;51.438;-0.098;2022-10-16T09:40:49;19.47;61.24
68276;DHT22;55106;51.438;-0.098;2022-10-16T09:43:33;19.53;60.83
68276;DHT22;55106;51.438;-0.098;2022-10-16T09:46:04;19.35;61.92
68276;DHT22;55106;51.438;-0.098;2022-10-16T09:48:36;19.23;62.03
68276;DHT22;55106;51.438;-0.098;2022-10-16T09:51:03;19.20;61.73
68276;DHT22;55106;51.438;-0.098;2022-10-16T09:53:43;18.72;62.76
68276;DHT22;55106;51.438;-0.098;2022-10-16T09:56:10;18.41;63.72
68276;DHT22;55106;51.438;-0.098;2022-10-16T09:58:42;17.26;66.87
68276;DHT22;55106;51.438;-0.098;2022-10-16T10:01:13;16.54;69.24
68276;DHT22;55106;51.438;-0.098;2022-10-16T10:03:41;16.03;70.80
68276;DHT22;55106;51.438;-0.098;2022-10-16T10:06:16;15.93;71.36
68276;DHT22;55106;51.438;-0.098;2022-10-16T10:09:06;15.75;72.56
68276;DHT22;55106;51.438;-0.098;2022-10-16T10:11:45;15.81;72.40
68276;DHT22;55106;51.438;-0.098;2022-10-16T10:14:22;15.70;72.43
68276;DHT22;55106;51.438;-0.098;2022-10-16T10:16:48;15.87;72.02
68276;DHT22;55106;51.438;-0.098;2022-10-16T10:19:23;16.03;72.26
68276;DHT22;55106;51.438;-0.098;2022-10-16T10:21:50;16.25;71.36
68276;DHT22;55106;51.438;-0.098;2022-10-16T10:24:18;15.82;73.11
68276;DHT22;55106;51.438;-0.098;2022-10-16T10:27:13;15.67;73.51
68276;DHT22;55106;51.438;-0.098;2022-10-16T10:35:22;15.83;73.56
68276;DHT22;55106;51.438;-0.098;2022-10-16T10:40:57;16.13;71.00
68276;DHT22;55106;51.438;-0.098;2022-10-16T10:51:55;16.21;70.68
68276;DHT22;55106;51.438;-0.098;2022-10-16T10:54:40;16.31;70.69
68276;DHT22;55106;51.438;-0.098;2022-10-16T11:00:23;16.48;71.61
68276;DHT22;55106;51.438;-0.098;2022-10-16T11:03:15;16.95;68.90
68276;DHT22;55106;51.438;-0.098;2022-10-16T11:05:49;17.13;69.83
68276;DHT22;55106;51.438;-0.098;2022-10-16T11:08:43;17.26;68.20
68276;DHT22;55106;51.438;-0.098;2022-10-16T11:11:17;17.64;67.37
68276;DHT22;55106;51.438;-0.098;2022-10-16T11:14:21;17.68;65.89
68276;DHT22;55106;51.438;-0.098;2022-10-16T11:16:53;17.79;67.16
68276;DHT22;55106;51.438;-0.098;2022-10-16T11:24:44;17.58;64.96
68276;DHT22;55106;51.438;-0.098;2022-10-16T11:27:15;17.67;65.41
68276;DHT22;55106;51.438;-0.098;2022-10-16T11:29:50;17.20;67.69
68276;DHT22;55106;51.438;-0.098;2022-10-16T11:32:44;17.17;65.61
68276;DHT22;55106;51.438;-0.098;2022-10-16T11:35:38;17.09;66.50
68276;DHT22;55106;51.438;-0.098;2022-10-16T11:38:30;17.12;66.91
68276;DHT22;55106;51.438;-0.098;2022-10-16T11:40:59;17.24;67.20
68276;DHT22;55106;51.438;-0.098;2022-10-16T11:43:38;17.22;67.57
68276;DHT22;55106;51.438;-0.098;2022-10-16T11:46:18;17.23;67.86
68276;DHT22;55106;51.438;-0.098;2022-10-16T11:48:52;17.13;67.82
68276;DHT22;55106;51.438;-0.098;2022-10-16T11:51:33;16.83;67.68
68276;DHT22;55106;51.438;-0.098;2022-10-16T11:54:08;16.90;68.64
68276;DHT22;55106;51.438;-0.098;2022-10-16T11:56:39;17.06;65.69
68276;DHT22;55106;51.438;-0.098;2022-10-16T11:59:20;16.89;65.90
68276;DHT22;55106;51.438;-0.098;2022-10-16T12:04:56;16.92;66.99
68276;DHT22;55106;51.438;-0.098;2022-10-16T12:07:39;17.16;65.47
68276;DHT22;55106;51.438;-0.098;2022-10-16T12:10:18;17.34;67.03
68276;DHT22;55106;51.438;-0.098;2022-10-16T12:12:45;17.50;68.96
68276;DHT22;55106;51.438;-0.098;2022-10-16T12:15:33;17.55;67.72
68276;DHT22;55106;51.438;-0.098;2022-10-16T12:18:00;17.63;67.25
68276;DHT22;55106;51.438;-0.098;2022-10-16T12:20:33;17.51;68.84
68276;DHT22;55106;51.438;-0.098;2022-10-16T12:23:04;17.50;67.65
68276;DHT22;55106;51.438;-0.098;2022-10-16T12:25:39;17.43;67.20
68276;DHT22;55106;51.438;-0.098;2022-10-16T12:28:22;17.48;69.83
68276;DHT22;55106;51.438;-0.098;2022-10-16T12:30:56;17.30;67.95
68276;DHT22;55106;51.438;-0.098;2022-10-16T12:33:30;17.43;69.20
68276;DHT22;55106;51.438;-0.098;2022-10-16T12:35:57;17.30;68.49
68276;DHT22;55106;51.438;-0.098;2022-10-16T12:41:00;17.33;69.24
68276;DHT22;55106;51.438;-0.098;2022-10-16T12:46:20;17.10;69.07
68276;DHT22;55106;51.438;-0.098;2022-10-16T12:48:47;16.88;70.52
68276;DHT22;55106;51.438;-0.098;2022-10-16T12:54:15;16.90;72.53
68276;DHT22;55106;51.438;-0.098;2022-10-16T13:10:26;16.76;72.24
68276;DHT22;55106;51.438;-0.098;2022-10-16T13:15:40;16.58;72.68
68276;DHT22;55106;51.438;-0.098;2022-10-16T13:26:26;16.50;73.21
68276;DHT22;55106;51.438;-0.098;2022-10-16T13:28:58;16.47;72.64
68276;DHT22;55106;51.438;-0.098;2022-10-16T13:31:24;16.45;72.91
68276;DHT22;55106;51.438;-0.098;2022-10-16T13:33:52;16.48;74.56
68276;DHT22;55106;51.438;-0.098;2022-10-16T13:36:27;16.47;73.91
68276;DHT22;55106;51.438;-0.098;2022-10-16T13:39:15;16.45;74.55
68276;DHT22;55106;51.438;-0.098;2022-10-16T13:41:43;16.54;73.80
68276;DHT22;55106;51.438;-0.098;2022-10-16T13:44:14;16.52;75.94
68276;DHT22;55106;51.438;-0.098;2022-10-16T13:46:40;16.64;75.39
68276;DHT22;55106;51.438;-0.098;2022-10-16T13:49:15;16.68;73.96
68276;DHT22;55106;51.438;-0.098;2022-10-16T13:51:41;16.73;73.99
68276;DHT22;55106;51.438;-0.098;2022-10-16T13:54:10;16.71;74.42
68276;DHT22;55106;51.438;-0.098;2022-10-16T13:56:39;16.73;73.93
68276;DHT22;55106;51.438;-0.098;2022-10-16T13:59:06;16.69;73.95
68276;DHT22;55106;51.438;-0.098;2022-10-16T14:01:41;16.61;74.90
68276;DHT22;55106;51.438;-0.098;2022-10-16T14:04:09;16.69;74.33
68276;DHT22;55106;51.438;-0.098;2022-10-16T14:06:36;16.69;74.58
68276;DHT22;55106;51.438;-0.098;2022-10-16T14:11:33;16.65;75.20
68276;DHT22;55106;51.438;-0.098;2022-10-16T14:14:00;16.65;75.23
68276;DHT22;55106;51.438;-0.098;2022-10-16T14:16:29;16.71;74.83
68276;DHT22;55106;51.438;-0.098;2022-10-16T14:19:01;16.54;75.48
68276;DHT22;55106;51.438;-0.098;2022-10-16T14:21:27;16.52;75.51
68276;DHT22;55106;51.438;-0.098;2022-10-16T14:23:53;16.44;75.37
68276;DHT22;55106;51.438;-0.098;2022-10-16T14:26:23;16.37;76.07
68276;DHT22;55106;51.438;-0.098;2022-10-16T14:29:03;16.41;75.79
68276;DHT22;55106;51.438;-0.098;2022-10-16T14:31:32;16.32;75.46
68276;DHT22;55106;51.438;-0.098;2022-10-16T14:33:58;16.35;76.06
68276;DHT22;55106;51.438;-0.098;2022-10-16T14:36:26;16.41;76.13
68276;DHT22;55106;51.438;-0.098;2022-10-16T14:38:59;16.44;76.03
68276;DHT22;55106;51.438;-0.098;2022-10-16T14:41:26;16.31;76.80
68276;DHT22;55106;51.438;-0.098;2022-10-16T14:43:54;16.37;77.02
68276;DHT22;55106;51.438;-0.098;2022-10-16T14:46:23;16.34;76.79
68276;DHT22;55106;51.438;-0.098;2022-10-16T14:48:59;16.34;76.69
68276;DHT22;55106;51.438;-0.098;2022-10-16T14:51:26;16.31;78.01
68276;DHT22;55106;51.438;-0.098;2022-10-16T14:53:52;16.28;78.50
68276;DHT22;55106;51.438;-0.098;2022-10-16T14:56:21;16.28;77.61
68276;DHT22;55106;51.438;-0.098;2022-10-16T14:58:47;16.28;77.59
68276;DHT22;55106;51.438;-0.098;2022-10-16T15:01:12;16.23;78.19
68276;DHT22;55106;51.438;-0.098;2022-10-16T15:03:38;16.25;77.83
68276;DHT22;55106;51.438;-0.098;2022-10-16T15:06:10;16.20;78.66
68276;DHT22;55106;51.438;-0.098;2022-10-16T15:08:36;16.16;78.74
68276;DHT22;55106;51.438;-0.098;2022-10-16T15:11:01;16.13;79.05
68276;DHT22;55106;51.438;-0.098;2022-10-16T15:13:27;16.10;79.51
68276;DHT22;55106;51.438;-0.098;2022-10-16T15:15:53;16.04;79.39
68276;DHT22;55106;51.438;-0.098;2022-10-16T15:18:18;16.00;79.73
68276;DHT22;55106;51.438;-0.098;2022-10-16T15:20:50;15.97;80.08
68276;DHT22;55106;51.438;-0.098;2022-10-16T15:23:20;15.92;80.59
68276;DHT22;55106;51.438;-0.098;2022-10-16T15:25:48;15.89;80.81
68276;DHT22;55106;51.438;-0.098;2022-10-16T15:28:15;15.85;81.23
68276;DHT22;55106;51.438;-0.098;2022-10-16T15:30:41;15.79;81.17
68276;DHT22;55106;51.438;-0.098;2022-10-16T15:33:33;15.81;81.01
68276;DHT22;55106;51.438;-0.098;2022-10-16T15:36:00;15.81;81.24
68276;DHT22;55106;51.438;-0.098;2022-10-16T15:38:26;15.75;81.17
68276;DHT22;55106;51.438;-0.098;2022-10-16T15:40:52;15.73;81.43
68276;DHT22;55106;51.438;-0.098;2022-10-16T15:43:17;15.66;82.31
68276;DHT22;55106;51.438;-0.098;2022-10-16T15:45:44;15.63;81.82
68276;DHT22;55106;51.438;-0.098;2022-10-16T15:48:13;15.65;81.89
68276;DHT22;55106;51.438;-0.098;2022-10-16T15:50:41;15.62;81.90
68276;DHT22;55106;51.438;-0.098;2022-10-16T15:53:07;15.61;81.88
68276;DHT22;55106;51.438;-0.098;2022-10-16T15:55:33;15.59;82.33
68276;DHT22;55106;51.438;-0.098;2022-10-16T15:57:58;15.56;82.52
68276;DHT22;55106;51.438;-0.098;2022-10-16T16:00:24;15.55;82.75
68276;DHT22;55106;51.438;-0.098;2022-10-16T16:02:54;15.55;82.81
68276;DHT22;55106;51.438;-0.098;2022-10-16T16:05:20;15.46;83.56
68276;DHT22;55106;51.438;-0.098;2022-10-16T16:07:47;15.44;83.48
68276;DHT22;55106;51.438;-0.098;2022-10-16T16:10:12;15.42;83.89
68276;DHT22;55106;51.438;-0.098;2022-10-16T16:12:38;15.41;84.02
68276;DHT22;55106;51.438;-0.098;2022-10-16T16:15:08;15.36;84.14
68276;DHT22;55106;51.438;-0.098;2022-10-16T16:17:34;15.38;84.27
68276;DHT22;55106;51.438;-0.098;2022-10-16T16:20:00;15.34;84.27
68276;DHT22;55106;51.438;-0.098;2022-10-16T16:22:26;15.31;84.30
68276;DHT22;55106;51.438;-0.098;2022-10-16T16:24:51;15.27;84.44
68276;DHT22;55106;51.438;-0.098;2022-10-16T16:27:17;15.23;84.58
68276;DHT22;55106;51.438;-0.098;2022-10-16T16:29:42;15.25;84.30
68276;DHT22;55106;51.438;-0.098;2022-10-16T16:32:08;15.23;84.28
68276;DHT22;55106;51.438;-0.098;2022-10-16T16:34:33;15.21;83.88
68276;DHT22;55106;51.438;-0.098;2022-10-16T16:36:59;15.20;83.76
68276;DHT22;55106;51.438;-0.098;2022-10-16T16:39:24;15.15;84.48
68276;DHT22;55106;51.438;-0.098;2022-10-16T16:41:50;15.07;85.90
68276;DHT22;55106;51.438;-0.098;2022-10-16T16:44:16;14.98;86.48
68276;DHT22;55106;51.438;-0.098;2022-10-16T16:46:42;14.90;86.88
68276;DHT22;55106;51.438;-0.098;2022-10-16T16:49:10;14.96;86.54
68276;DHT22;55106;51.438;-0.098;2022-10-16T16:51:36;14.90;86.85
68276;DHT22;55106;51.438;-0.098;2022-10-16T16:54:01;14.87;87.42
68276;DHT22;55106;51.438;-0.098;2022-10-16T16:56:27;14.79;87.68
68276;DHT22;55106;51.438;-0.098;2022-10-16T16:58:55;14.87;87.40
68276;DHT22;55106;51.438;-0.098;2022-10-16T17:01:22;14.84;87.80
68276;DHT22;55106;51.438;-0.098;2022-10-16T17:03:54;14.83;87.95